Time;durP1;ratioP1;P1;durP2;ratioP2;P2;SDS_P1;SDS_P2;PMS_P1;PMS_P2;Temp;Humidity;BMP_temperature;BMP_pressure;BME280_temperature;BME280_humidity;BME280_pressure;Samples;Min_cycle;Max_cycle;Signal;HPM_P1;HPM_P2
2023/06/02 00:01:43;;;;;;;2.05;0.40;;;19.50;72.30;;;;;;7401213;19;19923;-76
2023/06/02 00:04:12;;;;;;;2.65;0.50;;;19.50;72.30;;;;;;7399776;19;19995;-75
2023/06/02 00:06:41;;;;;;;2.15;0.40;;;19.50;72.30;;;;;;7399202;19;19922;-75
2023/06/02 00:09:10;;;;;;;2.20;0.50;;;19.50;72.20;;;;;;7401292;19;19939;-76
2023/06/02 00:11:39;;;;;;;2.85;0.57;;;19.50;72.30;;;;;;7401099;19;20551;-75
2023/06/02 00:14:11;;;;;;;4.22;0.77;;;19.50;72.20;;;;;;7399545;19;19930;-75
2023/06/02 00:16:46;;;;;;;2.47;0.55;;;19.50;72.20;;;;;;7399937;19;19939;-75
2023/06/02 00:19:16;;;;;;;1.52;0.40;;;19.50;72.30;;;;;;7398328;19;19941;-75
2023/06/02 00:21:47;;;;;;;2.53;0.45;;;19.50;72.20;;;;;;7395291;19;19919;-75
2023/06/02 00:24:16;;;;;;;1.70;0.40;;;19.50;72.20;;;;;;7396711;19;20316;-75
2023/06/02 00:26:45;;;;;;;2.05;0.50;;;19.50;72.20;;;;;;7397397;19;19925;-76
2023/06/02 00:29:17;;;;;;;1.42;0.50;;;19.40;72.10;;;;;;7395532;19;20293;-75
2023/06/02 00:31:46;;;;;;;2.70;0.60;;;19.40;72.20;;;;;;7398194;19;19919;-75
2023/06/02 00:34:15;;;;;;;2.45;0.40;;;19.40;72.20;;;;;;7397212;19;19922;-75
2023/06/02 00:36:45;;;;;;;1.20;0.30;;;19.40;72.20;;;;;;7400343;19;19978;-76
2023/06/02 00:39:14;;;;;;;1.45;0.40;;;19.40;72.20;;;;;;7399354;19;20010;-76
2023/06/02 00:41:43;;;;;;;3.17;0.40;;;19.40;72.10;;;;;;7395291;19;19961;-76
2023/06/02 00:44:12;;;;;;;1.88;0.15;;;19.40;72.20;;;;;;7396311;19;19939;-76
2023/06/02 00:46:43;;;;;;;1.33;0.32;;;19.40;72.10;;;;;;7397021;19;20009;-76
2023/06/02 00:49:12;;;;;;;2.15;0.40;;;19.40;72.10;;;;;;7396517;19;19927;-76
2023/06/02 00:51:45;;;;;;;1.63;0.43;;;19.40;72.10;;;;;;7398562;19;19933;-75
2023/06/02 00:54:16;;;;;;;0.93;0.20;;;19.40;72.10;;;;;;7397634;19;19930;-76
2023/06/02 00:56:45;;;;;;;2.17;0.30;;;19.40;72.10;;;;;;7395042;19;19918;-76
2023/06/02 00:59:14;;;;;;;1.70;0.35;;;19.40;72.10;;;;;;7398551;19;19927;-75
2023/06/02 01:01:48;;;;;;;1.40;0.40;;;19.30;72.00;;;;;;7397145;19;20303;-76
2023/06/02 01:04:18;;;;;;;1.20;0.30;;;19.30;72.00;;;;;;7400285;19;20324;-75
2023/06/02 01:06:48;;;;;;;3.40;0.52;;;19.30;72.10;;;;;;7398279;19;19995;-76
2023/06/02 01:09:19;;;;;;;1.42;0.30;;;19.40;72.10;;;;;;7399062;19;20338;-76
2023/06/02 01:11:48;;;;;;;2.05;0.35;;;19.40;72.10;;;;;;7398408;19;19933;-76
2023/06/02 01:14:17;;;;;;;1.88;0.32;;;19.30;72.00;;;;;;7400451;19;19937;-75
2023/06/02 01:16:51;;;;;;;1.55;0.50;;;19.30;72.00;;;;;;7404873;19;20013;-76
2023/06/02 01:19:26;;;;;;;1.58;0.25;;;19.30;72.00;;;;;;7405241;19;19919;-76
2023/06/02 01:22:02;;;;;;;2.22;0.40;;;19.30;72.00;;;;;;7404825;19;19933;-75
2023/06/02 01:24:39;;;;;;;1.33;0.30;;;19.30;72.00;;;;;;7405093;19;19924;-75
2023/06/02 01:27:09;;;;;;;2.83;0.68;;;19.30;72.00;;;;;;7401045;19;19974;-76
2023/06/02 01:29:38;;;;;;;2.05;0.40;;;19.30;72.00;;;;;;7406454;19;19926;-76
2023/06/02 01:32:16;;;;;;;1.83;0.50;;;19.30;72.00;;;;;;7405057;19;19938;-76
2023/06/02 01:34:50;;;;;;;1.90;0.22;;;19.30;72.00;;;;;;7405436;19;19935;-76
2023/06/02 01:37:22;;;;;;;2.38;0.40;;;19.30;72.00;;;;;;7404843;19;20258;-76
2023/06/02 01:39:56;;;;;;;2.22;0.40;;;19.30;72.00;;;;;;7403490;19;19922;-76
2023/06/02 01:42:26;;;;;;;2.17;0.30;;;19.20;72.00;;;;;;7402887;19;19950;-76
2023/06/02 01:44:56;;;;;;;2.20;0.70;;;19.20;72.00;;;;;;7399626;19;19926;-75
2023/06/02 01:47:26;;;;;;;1.48;0.30;;;19.20;72.00;;;;;;7399842;19;20686;-76
2023/06/02 01:49:54;;;;;;;;;;;19.30;72.00;;;;;;7409038;19;19942;-75
2023/06/02 01:52:23;;;;;;;1.27;0.47;;;19.20;72.00;;;;;;7405444;19;19986;-75
2023/06/02 01:54:55;;;;;;;1.27;0.20;;;19.30;72.00;;;;;;7405512;19;20013;-76
2023/06/02 01:57:25;;;;;;;2.15;0.20;;;19.20;72.00;;;;;;7402551;19;20356;-76
2023/06/02 01:59:54;;;;;;;2.17;0.32;;;19.30;72.00;;;;;;7404315;19;19942;-76
2023/06/02 02:02:23;;;;;;;1.30;0.30;;;19.20;71.90;;;;;;7404622;19;19940;-76
2023/06/02 02:04:52;;;;;;;1.42;0.32;;;19.20;72.00;;;;;;7402526;19;19989;-76
2023/06/02 02:07:21;;;;;;;2.15;0.40;;;19.20;72.00;;;;;;7402936;19;19919;-76
2023/06/02 02:09:50;;;;;;;1.80;0.40;;;19.20;72.00;;;;;;7403670;19;19930;-76
2023/06/02 02:12:22;;;;;;;1.75;0.28;;;19.20;72.00;;;;;;7403170;19;19937;-76
2023/06/02 02:14:53;;;;;;;2.47;0.43;;;19.20;72.00;;;;;;7400967;19;19970;-75
2023/06/02 02:17:25;;;;;;;1.65;0.40;;;19.20;72.00;;;;;;7398183;19;19926;-76
2023/06/02 02:19:55;;;;;;;1.02;0.30;;;19.20;71.90;;;;;;7404465;19;19926;-76
2023/06/02 02:22:25;;;;;;;4.20;0.43;;;19.20;71.90;;;;;;7399932;19;20297;-76
2023/06/02 02:24:54;;;;;;;1.85;0.50;;;19.20;71.90;;;;;;7404407;19;19939;-76
2023/06/02 02:27:26;;;;;;;1.00;0.32;;;19.20;71.90;;;;;;7401084;19;19990;-75
2023/06/02 02:29:57;;;;;;;1.50;0.35;;;19.20;71.90;;;;;;7402888;19;19938;-75
2023/06/02 02:32:26;;;;;;;2.10;0.32;;;19.20;72.00;;;;;;7403204;19;19926;-75
2023/06/02 02:34:55;;;;;;;2.85;0.45;;;19.20;71.90;;;;;;7402241;19;19978;-76
2023/06/02 02:37:24;;;;;;;;;;;19.20;72.00;;;;;;7405929;19;20003;-76
2023/06/02 02:39:53;;;;;;;1.50;0.22;;;19.20;71.90;;;;;;7402864;19;19915;-75
2023/06/02 02:42:22;;;;;;;2.13;0.35;;;19.20;71.90;;;;;;7401365;19;19918;-75
2023/06/02 02:44:54;;;;;;;2.00;0.45;;;19.10;71.80;;;;;;7400607;19;19919;-76
2023/06/02 02:47:23;;;;;;;1.67;0.40;;;19.20;71.80;;;;;;7400271;19;19935;-75
2023/06/02 02:49:52;;;;;;;1.75;0.47;;;19.10;71.80;;;;;;7401435;19;19970;-76
2023/06/02 02:52:21;;;;;;;2.75;0.40;;;19.20;71.80;;;;;;7402421;19;20572;-75
2023/06/02 02:54:50;;;;;;;1.40;0.28;;;19.20;71.80;;;;;;7402517;19;19926;-76
2023/06/02 02:57:19;;;;;;;1.90;0.30;;;19.20;71.70;;;;;;7403661;19;20407;-76
2023/06/02 02:59:49;;;;;;;1.42;0.38;;;19.20;71.70;;;;;;7402903;19;19982;-75
2023/06/02 03:02:20;;;;;;;;;;;19.20;71.80;;;;;;7401681;19;19928;-76
2023/06/02 03:04:51;;;;;;;3.10;0.40;;;19.20;71.70;;;;;;7398370;19;20290;-75
2023/06/02 03:07:20;;;;;;;2.22;0.32;;;19.20;71.70;;;;;;7399150;19;20339;-76
2023/06/02 03:09:49;;;;;;;2.28;0.30;;;19.20;71.70;;;;;;7398955;19;21685;-76
2023/06/02 03:12:18;;;;;;;2.00;0.30;;;19.10;71.70;;;;;;7399189;19;20340;-76
2023/06/02 03:14:47;;;;;;;1.92;0.50;;;19.10;71.70;;;;;;7400111;19;19922;-75
2023/06/02 03:17:17;;;;;;;1.63;0.30;;;19.10;71.70;;;;;;7402210;19;20356;-75
2023/06/02 03:19:49;;;;;;;1.75;0.22;;;19.10;71.70;;;;;;7401780;19;19930;-76
2023/06/02 03:22:18;;;;;;;1.35;0.65;;;19.10;71.70;;;;;;7403161;19;19929;-75
2023/06/02 03:24:47;;;;;;;1.20;0.30;;;19.20;71.80;;;;;;7403149;19;19935;-75
2023/06/02 03:27:16;;;;;;;1.30;0.30;;;19.20;71.70;;;;;;7401109;19;20622;-76
2023/06/02 03:29:45;;;;;;;;;;;19.20;71.70;;;;;;7402969;19;19915;-76
2023/06/02 03:32:15;;;;;;;3.10;0.28;;;19.20;71.70;;;;;;7403013;19;20344;-75
2023/06/02 03:34:44;;;;;;;;;;;19.10;71.70;;;;;;7403159;19;19926;-76
2023/06/02 03:37:16;;;;;;;1.10;0.28;;;19.10;71.60;;;;;;7399292;19;19922;-75
2023/06/02 03:39:45;;;;;;;1.52;0.30;;;19.20;71.70;;;;;;7400776;19;19978;-75
2023/06/02 03:42:14;;;;;;;1.27;0.40;;;19.10;71.60;;;;;;7399629;19;20320;-75
2023/06/02 03:44:43;;;;;;;2.10;0.52;;;19.10;71.60;;;;;;7399960;19;19944;-75
2023/06/02 03:47:12;;;;;;;3.05;0.60;;;19.10;71.60;;;;;;7398782;19;19978;-75
2023/06/02 03:49:41;;;;;;;2.28;0.28;;;19.20;71.60;;;;;;7400753;19;19919;-75
2023/06/02 03:52:10;;;;;;;1.23;0.22;;;19.10;71.60;;;;;;7400424;19;19933;-76
2023/06/02 03:54:42;;;;;;;2.78;0.47;;;19.10;71.60;;;;;;7399521;19;20411;-75
2023/06/02 03:57:11;;;;;;;2.35;0.22;;;19.10;71.60;;;;;;7399988;19;20301;-75
2023/06/02 03:59:40;;;;;;;1.10;0.25;;;19.10;71.50;;;;;;7397794;19;20076;-75
2023/06/02 04:02:09;;;;;;;2.47;0.80;;;19.10;71.50;;;;;;7399377;19;19941;-76
2023/06/02 04:04:38;;;;;;;1.80;0.20;;;19.10;71.50;;;;;;7400093;19;19932;-75
2023/06/02 04:07:07;;;;;;;2.50;0.20;;;19.10;71.50;;;;;;7400912;19;19927;-76
2023/06/02 04:09:37;;;;;;;2.40;0.30;;;19.10;71.50;;;;;;7399945;19;19936;-75
2023/06/02 04:12:09;;;;;;;1.63;0.63;;;19.20;71.50;;;;;;7399622;19;19938;-75
2023/06/02 04:14:38;;;;;;;1.95;0.30;;;19.10;71.40;;;;;;7399928;19;19922;-75
2023/06/02 04:17:08;;;;;;;1.58;0.57;;;19.10;71.40;;;;;;7400082;19;19922;-76
2023/06/02 04:19:37;;;;;;;0.98;0.32;;;19.10;71.40;;;;;;7400508;19;20333;-75
2023/06/02 04:22:07;;;;;;;1.10;0.28;;;19.10;71.40;;;;;;7399670;19;20006;-76
2023/06/02 04:24:40;;;;;;;2.42;0.22;;;19.20;71.50;;;;;;7400939;19;19926;-75
2023/06/02 04:27:11;;;;;;;2.20;0.52;;;19.20;71.40;;;;;;7399548;19;20368;-75
2023/06/02 04:29:41;;;;;;;2.05;0.25;;;19.10;71.40;;;;;;7398180;19;19922;-75
2023/06/02 04:32:11;;;;;;;1.70;0.22;;;19.10;72.00;;;;;;7398207;19;19918;-75
2023/06/02 04:34:40;;;;;;;1.73;0.40;;;19.20;71.50;;;;;;7396326;19;19989;-75
2023/06/02 04:37:10;;;;;;;;;;;19.20;71.40;;;;;;7402659;19;19926;-75
2023/06/02 04:39:39;;;;;;;1.25;0.30;;;19.10;71.30;;;;;;7398886;19;20274;-75
2023/06/02 04:42:12;;;;;;;2.83;0.50;;;19.20;71.40;;;;;;7398966;19;20271;-75
2023/06/02 04:44:44;;;;;;;0.85;0.20;;;19.10;71.40;;;;;;7396356;19;19919;-76
2023/06/02 04:47:13;;;;;;;3.30;0.52;;;19.10;71.30;;;;;;7396964;19;20599;-75
2023/06/02 04:49:42;;;;;;;1.98;0.85;;;19.20;71.40;;;;;;7402790;19;20352;-75
2023/06/02 04:52:11;;;;;;;2.08;0.30;;;19.20;71.40;;;;;;7404865;19;19942;-75
2023/06/02 04:54:40;;;;;;;1.67;0.38;;;19.10;71.30;;;;;;7404013;19;19939;-75
2023/06/02 04:57:12;;;;;;;2.10;0.22;;;19.10;71.30;;;;;;7403440;19;19922;-75
2023/06/02 04:59:41;;;;;;;1.42;0.28;;;19.20;71.20;;;;;;7404216;19;19926;-75
2023/06/02 05:02:10;;;;;;;1.98;0.25;;;19.10;71.20;;;;;;7404159;19;20013;-76
2023/06/02 05:04:39;;;;;;;2.40;0.20;;;19.20;71.20;;;;;;7404649;19;19923;-75
2023/06/02 05:07:08;;;;;;;1.77;0.60;;;19.20;71.20;;;;;;7403061;19;19922;-75
2023/06/02 05:09:37;;;;;;;1.25;0.20;;;19.20;71.20;;;;;;7405958;19;19991;-76
2023/06/02 05:12:07;;;;;;;1.35;0.30;;;19.20;71.10;;;;;;7404373;19;19922;-76
2023/06/02 05:14:39;;;;;;;1.45;0.50;;;19.20;71.10;;;;;;7403218;19;19978;-76
2023/06/02 05:17:09;;;;;;;1.73;0.55;;;19.20;71.10;;;;;;7406435;19;19939;-75
2023/06/02 05:19:38;;;;;;;2.03;0.35;;;19.20;71.10;;;;;;7404287;19;19925;-75
2023/06/02 05:22:07;;;;;;;1.27;0.20;;;19.20;71.00;;;;;;7405673;19;19982;-76
2023/06/02 05:24:36;;;;;;;1.38;0.20;;;19.20;71.00;;;;;;7406524;19;19919;-76
2023/06/02 05:27:07;;;;;;;1.95;0.32;;;19.20;71.10;;;;;;7405092;19;19936;-74
2023/06/02 05:29:38;;;;;;;1.58;0.47;;;19.20;71.00;;;;;;7404747;19;20005;-75
2023/06/02 05:32:09;;;;;;;1.60;0.22;;;19.20;71.00;;;;;;7405330;19;19938;-75
2023/06/02 05:34:39;;;;;;;1.05;0.30;;;19.20;71.00;;;;;;7404926;19;19982;-75
2023/06/02 05:37:08;;;;;;;1.55;0.20;;;19.30;71.00;;;;;;7401883;19;19922;-75
2023/06/02 05:39:38;;;;;;;1.58;0.20;;;19.30;71.00;;;;;;7401825;19;19919;-76
2023/06/02 05:42:08;;;;;;;1.63;0.47;;;19.30;71.00;;;;;;7403949;19;19914;-75
2023/06/02 05:44:40;;;;;;;1.30;0.40;;;19.30;70.90;;;;;;7401828;19;19926;-75
2023/06/02 05:47:09;;;;;;;2.05;0.57;;;19.30;70.90;;;;;;7402841;19;19926;-75
2023/06/02 05:49:38;;;;;;;1.30;0.65;;;19.30;70.90;;;;;;7404493;19;19923;-75
2023/06/02 05:52:08;;;;;;;1.80;0.30;;;19.30;70.80;;;;;;7407972;19;19918;-75
2023/06/02 05:54:37;;;;;;;;;;;19.30;70.80;;;;;;7407667;19;19918;-75
2023/06/02 05:57:06;;;;;;;1.50;0.40;;;19.30;70.80;;;;;;7404684;19;19922;-75
2023/06/02 05:59:35;;;;;;;2.67;0.20;;;19.30;70.80;;;;;;7404963;19;20015;-75
2023/06/02 06:02:08;;;;;;;2.00;0.20;;;19.30;70.70;;;;;;7401464;19;20611;-75
2023/06/02 06:04:37;;;;;;;2.67;0.30;;;19.40;70.70;;;;;;7404985;19;19918;-75
2023/06/02 06:07:07;;;;;;;1.00;0.22;;;19.40;70.60;;;;;;7402126;19;19922;-76
2023/06/02 06:09:35;;;;;;;;;;;19.40;70.50;;;;;;7407766;19;20385;-75
2023/06/02 06:12:05;;;;;;;1.55;0.40;;;19.50;70.50;;;;;;7402051;19;19918;-75
2023/06/02 06:14:34;;;;;;;1.38;0.40;;;19.50;70.50;;;;;;7403004;19;19922;-75
2023/06/02 06:17:03;;;;;;;1.35;0.38;;;19.50;70.40;;;;;;7401713;19;19939;-76
2023/06/02 06:19:34;;;;;;;1.50;0.30;;;19.50;70.40;;;;;;7403525;19;19958;-75
2023/06/02 06:22:03;;;;;;;2.05;0.32;;;19.50;70.30;;;;;;7399065;19;19930;-76
2023/06/02 06:24:32;;;;;;;2.00;0.20;;;19.50;70.20;;;;;;7401783;19;19954;-76
2023/06/02 06:27:01;;;;;;;1.77;0.20;;;19.60;70.20;;;;;;7402837;19;20469;-79
2023/06/02 06:29:30;;;;;;;2.10;0.35;;;19.60;70.20;;;;;;7401423;19;19919;-75
2023/06/02 06:31:59;;;;;;;3.08;0.47;;;19.60;70.40;;;;;;7400806;19;20363;-75
2023/06/02 06:34:28;;;;;;;2.33;0.30;;;19.70;70.30;;;;;;7400192;19;19914;-75
2023/06/02 06:37:00;;;;;;;1.23;0.40;;;19.70;70.30;;;;;;7401547;19;19922;-74
2023/06/02 06:39:29;;;;;;;1.30;0.28;;;19.70;70.30;;;;;;7397623;19;19929;-81
2023/06/02 06:41:58;;;;;;;2.67;0.40;;;19.70;70.20;;;;;;7397925;19;19982;-74
2023/06/02 06:44:27;;;;;;;2.20;0.32;;;19.70;70.30;;;;;;7395165;19;20336;-72
2023/06/02 06:46:57;;;;;;;1.85;0.43;;;19.70;70.40;;;;;;7404766;19;19956;-72
2023/06/02 06:49:26;;;;;;;2.92;0.40;;;19.70;70.50;;;;;;7401825;19;19994;-72
2023/06/02 06:51:55;;;;;;;1.92;0.63;;;19.70;70.60;;;;;;7401510;19;19926;-71
2023/06/02 06:54:26;;;;;;;2.63;0.43;;;19.80;70.70;;;;;;7396371;19;19918;-73
2023/06/02 06:56:55;;;;;;;2.58;0.43;;;19.80;70.80;;;;;;7403594;19;19994;-73
2023/06/02 06:59:24;;;;;;;3.72;0.60;;;19.80;70.80;;;;;;7399451;19;19934;-82
2023/06/02 07:01:53;;;;;;;2.53;0.32;;;19.80;71.00;;;;;;7406493;19;19933;-83
2023/06/02 07:04:22;;;;;;;1.23;0.30;;;19.80;71.00;;;;;;7406089;19;19923;-83
2023/06/02 07:06:51;;;;;;;3.25;0.43;;;19.80;71.00;;;;;;7404035;19;19930;-83
2023/06/02 07:09:20;;;;;;;2.25;0.30;;;19.90;71.10;;;;;;7404049;19;19983;-83
2023/06/02 07:11:51;;;;;;;1.92;0.20;;;19.90;71.20;;;;;;7403274;19;19928;-79
2023/06/02 07:14:20;;;;;;;2.15;0.40;;;19.90;71.40;;;;;;7401339;19;20318;-72
2023/06/02 07:16:53;;;;;;;3.80;0.50;;;19.90;71.40;;;;;;7402320;19;19918;-73
2023/06/02 07:19:23;;;;;;;3.95;0.47;;;19.90;71.60;;;;;;7398442;19;20853;-74
2023/06/02 07:21:52;;;;;;;2.17;0.32;;;19.90;71.60;;;;;;7402997;19;19974;-85
2023/06/02 07:24:21;;;;;;;1.85;0.30;;;20.00;71.70;;;;;;7403950;19;19929;-81
2023/06/02 07:26:54;;;;;;;2.50;0.32;;;20.00;71.70;;;;;;7403909;19;19986;-83
2023/06/02 07:29:23;;;;;;;2.58;0.40;;;20.00;71.70;;;;;;7401785;19;19925;-84
2023/06/02 07:31:52;;;;;;;4.50;0.40;;;20.00;71.70;;;;;;7402923;19;19910;-84
2023/06/02 07:34:21;;;;;;;3.58;0.40;;;20.00;71.70;;;;;;7400170;19;19927;-84
2023/06/02 07:36:50;;;;;;;2.47;0.35;;;20.00;71.80;;;;;;7405230;19;19926;-86
2023/06/02 07:39:20;;;;;;;2.95;0.38;;;20.00;71.80;;;;;;7403573;19;20313;-86
2023/06/02 07:41:49;;;;;;;3.83;0.30;;;20.00;71.80;;;;;;7402620;19;19954;-86
2023/06/02 07:44:20;;;;;;;4.32;0.50;;;20.10;71.80;;;;;;7401438;19;19978;-74
2023/06/02 07:46:50;;;;;;;1.67;0.30;;;20.10;71.80;;;;;;7401545;19;20364;-73
2023/06/02 07:49:19;;;;;;;2.70;0.38;;;20.10;71.80;;;;;;7400731;19;19922;-85
2023/06/02 07:51:48;;;;;;;2.20;0.30;;;20.10;72.40;;;;;;7396138;19;19930;-84
2023/06/02 07:54:17;;;;;;;2.78;0.30;;;20.10;71.80;;;;;;7402958;19;19998;-85
2023/06/02 07:56:46;;;;;;;1.80;0.40;;;20.10;71.80;;;;;;7401992;19;19929;-83
2023/06/02 07:59:16;;;;;;;2.25;0.40;;;20.20;71.80;;;;;;7401997;19;20013;-84
2023/06/02 08:01:47;;;;;;;2.35;0.63;;;20.20;71.70;;;;;;7402490;19;19923;-85
2023/06/02 08:04:16;;;;;;;2.30;0.32;;;20.20;71.70;;;;;;7402335;19;19923;-82
2023/06/02 08:06:45;;;;;;;3.10;0.50;;;20.20;71.70;;;;;;7404185;19;20276;-90
2023/06/02 08:09:14;;;;;;;1.85;0.45;;;20.20;71.60;;;;;;7400588;19;19981;-87
2023/06/02 08:11:43;;;;;;;4.75;0.63;;;20.30;71.70;;;;;;7399107;19;20014;-84
2023/06/02 08:14:13;;;;;;;2.17;0.20;;;20.30;71.60;;;;;;7398602;19;20311;-82
2023/06/02 08:16:43;;;;;;;2.50;0.38;;;20.30;71.60;;;;;;7397354;19;19996;-82
2023/06/02 08:19:17;;;;;;;1.80;0.28;;;20.30;71.60;;;;;;7401359;19;20416;-82
2023/06/02 08:21:46;;;;;;;2.97;0.43;;;20.30;71.50;;;;;;7401200;19;19918;-83
2023/06/02 08:24:15;;;;;;;1.75;0.30;;;20.30;71.50;;;;;;7403141;19;19925;-84
2023/06/02 08:26:44;;;;;;;2.42;0.28;;;20.30;71.60;;;;;;7407585;19;19918;-83
2023/06/02 08:29:13;;;;;;;1.50;0.30;;;20.40;71.50;;;;;;7404713;19;20365;-85
2023/06/02 08:31:42;;;;;;;2.08;0.70;;;20.40;71.40;;;;;;7409263;19;19918;-91
2023/06/02 08:34:14;;;;;;;1.70;0.35;;;20.40;71.40;;;;;;7409374;19;19914;-89
2023/06/02 08:36:43;;;;;;;1.52;0.30;;;20.40;71.40;;;;;;7408284;19;19954;-84
2023/06/02 08:39:13;;;;;;;1.17;0.32;;;20.40;71.40;;;;;;7407844;19;20299;-82
2023/06/02 08:41:42;;;;;;;2.08;0.43;;;20.40;71.40;;;;;;7405143;19;19921;-83
2023/06/02 08:44:12;;;;;;;1.75;0.32;;;20.50;71.30;;;;;;7402934;19;19975;-83
2023/06/02 08:46:41;;;;;;;2.40;0.32;;;20.50;71.30;;;;;;7404457;19;19932;-80
2023/06/02 08:49:17;;;;;;;2.03;0.55;;;20.50;71.20;;;;;;7402031;19;19993;-83
2023/06/02 08:51:50;;;;;;;5.10;0.52;;;20.50;71.20;;;;;;7406447;19;20044;-75
2023/06/02 08:54:20;;;;;;;2.75;0.50;;;20.50;71.20;;;;;;7403516;19;19923;-82
2023/06/02 08:56:51;;;;;;;1.48;0.20;;;20.50;71.40;;;;;;7407993;19;19932;-84
2023/06/02 08:59:21;;;;;;;2.45;0.43;;;20.60;71.30;;;;;;7407461;19;19922;-76
2023/06/02 09:01:50;;;;;;;2.78;0.32;;;20.60;71.10;;;;;;7404432;19;20293;-77
2023/06/02 09:04:22;;;;;;;1.73;0.20;;;20.60;71.00;;;;;;7403987;19;19956;-76
2023/06/02 09:06:51;;;;;;;2.72;0.75;;;20.60;71.00;;;;;;7402321;19;20555;-82
2023/06/02 09:09:20;;;;;;;1.33;0.20;;;20.70;71.00;;;;;;7406021;19;19923;-90
2023/06/02 09:12:01;;;;;;;1.42;0.30;;;20.70;70.90;;;;;;7400785;19;19928;-85
2023/06/02 09:14:30;;;;;;;1.95;0.38;;;20.70;70.90;;;;;;7405565;19;20029;-82
2023/06/02 09:16:59;;;;;;;2.53;0.25;;;20.70;70.80;;;;;;7406723;19;20405;-81
2023/06/02 09:19:51;;;;;;;1.52;0.30;;;20.80;70.80;;;;;;7404634;19;19919;-82
2023/06/02 09:22:20;;;;;;;1.58;0.65;;;20.80;70.70;;;;;;7414253;19;20746;-84
2023/06/02 09:24:49;;;;;;;1.60;0.30;;;20.80;70.70;;;;;;7405954;19;20237;-80
2023/06/02 09:27:19;;;;;;;2.75;0.50;;;20.80;70.60;;;;;;7407649;19;19922;-81
2023/06/02 09:29:49;;;;;;;2.25;0.30;;;20.80;70.60;;;;;;7404568;19;20320;-80
2023/06/02 09:32:19;;;;;;;2.10;0.32;;;20.90;70.60;;;;;;7405521;19;19974;-82
2023/06/02 09:34:51;;;;;;;2.15;0.32;;;20.90;71.10;;;;;;7400072;19;19939;-81
2023/06/02 09:37:22;;;;;;;1.73;0.20;;;20.90;70.50;;;;;;7404267;19;20892;-85
2023/06/02 09:39:53;;;;;;;2.08;0.35;;;21.00;70.50;;;;;;7403293;19;20025;-87
2023/06/02 09:42:22;;;;;;;2.65;0.40;;;21.00;70.40;;;;;;7402115;19;19943;-83
2023/06/02 09:45:05;;;;;;;1.70;0.22;;;21.00;70.40;;;;;;7401434;19;19926;-81
2023/06/02 09:47:40;;;;;;;1.63;0.50;;;21.00;70.40;;;;;;7404408;19;19925;-82
2023/06/02 09:50:32;;;;;;;1.45;0.30;;;21.00;70.30;;;;;;7404816;19;19915;-82
2023/06/02 09:53:04;;;;;;;2.15;0.55;;;21.00;70.30;;;;;;7406026;19;19915;-81
2023/06/02 09:55:35;;;;;;;1.40;0.22;;;21.10;70.30;;;;;;7404346;19;20393;-82
2023/06/02 09:58:05;;;;;;;2.90;0.55;;;21.10;70.30;;;;;;7405414;19;19914;-71
2023/06/02 10:00:35;;;;;;;1.60;0.28;;;21.10;70.20;;;;;;7397938;19;19930;-74
2023/06/02 10:03:04;;;;;;;7.65;0.65;;;21.10;70.20;;;;;;7393899;19;19918;-74
2023/06/02 10:05:36;;;;;;;;;;;21.20;70.30;;;;;;7404207;19;19927;-75
2023/06/02 10:08:18;;;;;;;2.28;0.30;;;21.20;70.20;;;;;;7399566;19;19923;-73
2023/06/02 10:10:57;;;;;;;2.47;0.40;;;21.20;70.00;;;;;;7402542;19;20579;-75
2023/06/02 10:13:57;;;;;;;4.38;0.40;;;21.20;69.90;;;;;;7399758;19;19985;-81
2023/06/02 10:16:42;;;;;;;2.97;0.43;;;21.30;70.00;;;;;;7400511;19;19997;-81
2023/06/02 10:19:53;;;;;;;1.33;0.30;;;21.30;69.90;;;;;;7401748;19;19994;-81
2023/06/02 10:22:50;;;;;;;1.45;0.22;;;21.30;69.80;;;;;;7398829;19;19922;-83
2023/06/02 10:25:30;;;;;;;1.48;0.35;;;21.30;69.80;;;;;;7393768;19;19958;-85
2023/06/02 10:27:59;;;;;;;1.23;0.20;;;21.40;69.70;;;;;;7394687;19;19947;-84
2023/06/02 10:30:28;;;;;;;2.67;0.30;;;21.40;69.70;;;;;;7391770;19;19923;-83
2023/06/02 10:32:57;;;;;;;3.63;0.38;;;21.40;69.60;;;;;;7394966;19;19921;-82
2023/06/02 10:36:00;;;;;;;1.38;0.20;;;21.40;69.60;;;;;;7395155;19;19922;-83
2023/06/02 10:38:36;;;;;;;2.08;0.30;;;21.40;69.50;;;;;;7394859;19;19919;-76
2023/06/02 10:41:05;;;;;;;1.17;0.38;;;21.40;69.40;;;;;;7399871;19;19949;-76
2023/06/02 10:43:35;;;;;;;;;;;21.50;69.40;;;;;;7400249;19;20328;-83
2023/06/02 10:46:20;;;;;;;0.80;0.10;;;21.50;69.40;;;;;;7400746;19;19923;-81
2023/06/02 10:48:50;;;;;;;1.08;0.20;;;21.60;69.30;;;;;;7399447;19;19926;-84
2023/06/02 10:51:19;;;;;;;2.95;0.20;;;21.60;69.20;;;;;;7402453;19;19929;-84
2023/06/02 10:54:18;;;;;;;3.40;0.25;;;21.60;69.20;;;;;;7403805;19;19914;-90
2023/06/02 10:56:48;;;;;;;1.73;0.30;;;21.60;69.10;;;;;;7400710;19;20256;-84
2023/06/02 10:59:34;;;;;;;0.93;0.20;;;21.60;69.00;;;;;;7402612;19;19922;-83
2023/06/02 11:02:03;;;;;;;1.70;0.15;;;21.70;69.00;;;;;;7398615;19;19927;-81
2023/06/02 11:04:33;;;;;;;1.38;0.40;;;21.70;69.00;;;;;;7397898;19;20293;-81
2023/06/02 11:07:26;;;;;;;3.05;0.40;;;21.80;69.00;;;;;;7401762;19;19922;-83
2023/06/02 11:09:59;;;;;;;2.35;0.30;;;21.80;68.90;;;;;;7401381;19;19982;-81
2023/06/02 11:12:58;;;;;;;2.28;0.30;;;21.80;68.80;;;;;;7398153;19;20241;-81
2023/06/02 11:15:27;;;;;;;1.52;0.40;;;21.90;68.80;;;;;;7401980;19;19982;-84
2023/06/02 11:17:56;;;;;;;1.13;0.30;;;21.90;68.60;;;;;;7400082;19;19928;-84
2023/06/02 11:20:36;;;;;;;1.92;0.20;;;21.90;68.70;;;;;;7404118;19;19935;-87
2023/06/02 11:23:06;;;;;;;1.38;0.38;;;21.90;68.70;;;;;;7399654;19;20353;-82
2023/06/02 11:25:38;;;;;;;1.60;0.40;;;21.90;68.60;;;;;;7396643;19;19926;-84
2023/06/02 11:28:07;;;;;;;1.55;0.40;;;22.00;68.70;;;;;;7399746;19;19929;-74
2023/06/02 11:30:36;;;;;;;1.25;0.22;;;22.00;68.70;;;;;;7398035;19;20360;-75
2023/06/02 11:33:05;;;;;;;1.33;0.10;;;22.00;68.60;;;;;;7400151;19;19981;-74
2023/06/02 11:35:34;;;;;;;1.40;0.22;;;22.00;68.50;;;;;;7402201;19;19926;-74
2023/06/02 11:38:07;;;;;;;1.63;0.30;;;22.00;68.40;;;;;;7399926;19;20313;-75
2023/06/02 11:40:39;;;;;;;2.58;0.25;;;22.00;68.50;;;;;;7394592;19;19926;-75
2023/06/02 11:43:08;;;;;;;3.42;0.60;;;22.00;68.50;;;;;;7394908;19;19942;-73
2023/06/02 11:45:38;;;;;;;1.45;0.17;;;22.00;68.50;;;;;;7392194;19;19923;-77
2023/06/02 11:48:11;;;;;;;2.03;0.30;;;22.00;68.50;;;;;;7399418;19;19926;-77
2023/06/02 11:50:40;;;;;;;1.48;0.22;;;22.00;68.40;;;;;;7396222;19;19929;-75
2023/06/02 11:53:15;;;;;;;2.42;0.30;;;22.10;68.40;;;;;;7401451;19;19919;-77
2023/06/02 11:55:47;;;;;;;1.73;0.38;;;22.00;68.30;;;;;;7400171;19;19914;-78
2023/06/02 11:58:22;;;;;;;1.40;0.17;;;22.10;68.30;;;;;;7396110;19;20297;-74
2023/06/02 12:00:53;;;;;;;1.63;0.20;;;22.10;68.20;;;;;;7398456;19;21101;-74
2023/06/02 12:03:24;;;;;;;2.50;0.50;;;22.00;68.20;;;;;;7399617;19;19929;-75
2023/06/02 12:05:55;;;;;;;2.65;0.30;;;22.00;68.20;;;;;;7398493;19;20290;-74
2023/06/02 12:08:27;;;;;;;2.80;0.20;;;22.10;68.30;;;;;;7399624;19;20344;-74
2023/06/02 12:10:59;;;;;;;2.45;0.40;;;22.10;68.30;;;;;;7396517;19;19918;-74
2023/06/02 12:13:29;;;;;;;2.28;0.50;;;22.10;68.20;;;;;;7398619;19;20489;-74
2023/06/02 12:16:00;;;;;;;1.73;0.22;;;22.10;68.30;;;;;;7399597;19;20028;-76
2023/06/02 12:18:33;;;;;;;5.25;0.40;;;22.20;68.30;;;;;;7398544;19;19927;-77
2023/06/02 12:21:03;;;;;;;5.07;0.57;;;22.20;68.30;;;;;;7397349;19;19933;-78
2023/06/02 12:23:45;;;;;;;2.40;0.52;;;22.20;68.70;;;;;;7395253;19;19922;-75
2023/06/02 12:26:18;;;;;;;3.67;0.45;;;22.20;68.80;;;;;;7396211;19;19933;-88
2023/06/02 12:28:49;;;;;;;3.75;0.43;;;22.20;69.00;;;;;;7402749;19;19919;-87
2023/06/02 12:31:19;;;;;;;5.22;0.70;;;22.20;69.00;;;;;;7398346;19;19929;-88
2023/06/02 12:33:48;;;;;;;3.33;0.30;;;22.20;69.10;;;;;;7397375;19;19922;-80
2023/06/02 12:36:17;;;;;;;3.63;0.30;;;22.20;69.10;;;;;;7402100;19;20003;-74
2023/06/02 12:38:46;;;;;;;3.53;0.47;;;22.20;69.20;;;;;;7399670;19;19974;-82
2023/06/02 12:41:17;;;;;;;5.13;0.35;;;22.20;69.30;;;;;;7396210;19;20271;-81
2023/06/02 12:43:47;;;;;;;3.75;0.52;;;22.20;69.40;;;;;;7401964;19;19921;-81
2023/06/02 12:46:16;;;;;;;3.08;0.43;;;22.20;69.30;;;;;;7398864;19;20033;-81
2023/06/02 12:48:47;;;;;;;4.72;0.45;;;22.20;69.30;;;;;;7400174;19;20348;-81
2023/06/02 12:51:16;;;;;;;2.92;0.40;;;22.20;69.30;;;;;;7400344;19;20269;-81
2023/06/02 12:53:45;;;;;;;6.72;0.68;;;22.30;69.40;;;;;;7399811;19;19943;-81
2023/06/02 12:56:17;;;;;;;3.63;0.43;;;22.20;69.30;;;;;;7402337;19;20663;-81
2023/06/02 12:58:47;;;;;;;4.20;0.50;;;22.30;69.30;;;;;;7401160;19;19923;-81
2023/06/02 13:01:16;;;;;;;5.40;0.50;;;22.30;69.30;;;;;;7402412;19;19943;-81
2023/06/02 13:03:49;;;;;;;2.72;0.20;;;22.40;69.30;;;;;;7402034;19;19975;-82
2023/06/02 13:06:20;;;;;;;2.35;0.55;;;22.40;69.10;;;;;;7403125;19;19923;-82
2023/06/02 13:08:49;;;;;;;3.53;0.50;;;22.40;69.10;;;;;;7401340;19;19982;-82
2023/06/02 13:11:22;;;;;;;3.90;0.57;;;22.50;69.10;;;;;;7406016;19;20039;-82